createdAt,value
2019-02-22T00:01:20.996Z,2.23
2019-02-22T00:03:47.324Z,2.53
2019-02-22T00:06:13.681Z,2.40
2019-02-22T00:08:40.024Z,2.60
2019-02-22T00:11:06.404Z,2.37
2019-02-22T00:13:32.829Z,2.60
2019-02-22T00:15:59.263Z,2.37
2019-02-22T00:18:25.591Z,2.40
2019-02-22T00:20:51.958Z,2.40
2019-02-22T00:23:18.318Z,2.60
2019-02-22T00:25:44.647Z,2.57
2019-02-22T00:28:11.022Z,2.50
2019-02-22T00:30:37.353Z,2.63
2019-02-22T00:33:03.705Z,2.87
2019-02-22T00:35:30.090Z,2.60
2019-02-22T00:37:56.443Z,2.43
2019-02-22T00:40:22.772Z,2.50
2019-02-22T00:42:50.325Z,2.73
2019-02-22T00:45:15.434Z,3.10
2019-02-22T00:47:41.728Z,2.83
2019-02-22T00:50:08.095Z,2.33
2019-02-22T00:52:34.435Z,2.43
2019-02-22T00:55:00.785Z,2.70
2019-02-22T00:57:27.531Z,2.50
2019-02-22T00:59:53.862Z,2.50
2019-02-22T01:02:20.216Z,2.70
2019-02-22T01:04:46.544Z,2.10
2019-02-22T01:07:12.877Z,2.37
2019-02-22T01:09:39.296Z,2.20
2019-02-22T01:12:05.668Z,2.17
2019-02-22T01:14:31.999Z,2.30
2019-02-22T01:16:58.426Z,2.27
2019-02-22T01:19:24.781Z,2.17
2019-02-22T01:21:51.195Z,1.80
2019-02-22T01:24:17.551Z,2.00
2019-02-22T01:26:43.921Z,1.87
2019-02-22T01:29:10.263Z,2.17
2019-02-22T01:31:36.599Z,2.00
2019-02-22T01:34:03.013Z,1.90
2019-02-22T01:36:29.319Z,1.80
2019-02-22T01:38:55.631Z,1.73
2019-02-22T01:41:21.995Z,2.00
2019-02-22T01:43:48.325Z,1.97
2019-02-22T01:46:14.698Z,2.40
2019-02-22T01:48:41.028Z,2.00
2019-02-22T01:51:07.425Z,1.90
2019-02-22T01:53:33.723Z,1.67
2019-02-22T01:56:00.102Z,1.70
2019-02-22T01:58:26.433Z,1.63
2019-02-22T02:00:52.923Z,1.60
2019-02-22T02:03:19.245Z,1.90
2019-02-22T02:05:45.600Z,1.87
2019-02-22T02:08:11.953Z,1.80
2019-02-22T02:10:38.283Z,1.80
2019-02-22T02:13:04.614Z,1.60
2019-02-22T02:15:30.947Z,1.70
2019-02-22T02:17:57.272Z,1.50
2019-02-22T02:20:23.702Z,1.87
2019-02-22T02:22:50.016Z,1.77
2019-02-22T02:25:16.343Z,1.50
2019-02-22T02:27:42.673Z,1.50
2019-02-22T02:30:09.012Z,1.60
2019-02-22T02:32:35.336Z,1.60
2019-02-22T02:35:01.706Z,1.50
2019-02-22T02:37:28.014Z,1.43
2019-02-22T02:39:54.352Z,1.47
2019-02-22T02:42:20.761Z,1.60
2019-02-22T02:44:47.146Z,1.50
2019-02-22T02:47:13.566Z,1.60
2019-02-22T02:49:39.879Z,1.60
2019-02-22T02:52:06.220Z,1.50
2019-02-22T02:54:32.674Z,1.57
2019-02-22T02:56:58.929Z,1.53
2019-02-22T02:59:25.278Z,1.43
2019-02-22T03:01:51.607Z,1.50
2019-02-22T03:04:17.935Z,1.60
2019-02-22T03:06:44.326Z,1.60
2019-02-22T03:09:10.668Z,1.50
2019-02-22T03:11:37.077Z,1.43
2019-02-22T03:14:03.350Z,1.60
2019-02-22T03:16:29.780Z,1.50
2019-02-22T03:18:56.107Z,1.20
2019-02-22T03:21:22.523Z,1.27
2019-02-22T03:23:48.837Z,1.57
2019-02-22T03:26:15.163Z,1.23
2019-02-22T03:28:41.489Z,1.60
2019-02-22T03:31:07.863Z,1.50
2019-02-22T03:33:34.196Z,1.60
2019-02-22T03:36:00.531Z,1.50
2019-02-22T03:38:26.888Z,1.67
2019-02-22T03:40:53.229Z,1.53
2019-02-22T03:43:19.554Z,1.50
2019-02-22T03:45:45.947Z,1.47
2019-02-22T03:48:12.412Z,1.50
2019-02-22T03:50:38.754Z,1.63
2019-02-22T03:53:05.091Z,1.60
2019-02-22T03:55:31.521Z,1.47
2019-02-22T03:58:00.606Z,1.70
2019-02-22T04:00:26.960Z,1.50
2019-02-22T04:02:53.291Z,1.70
2019-02-22T04:05:19.664Z,1.60
2019-02-22T04:07:46.015Z,1.70
2019-02-22T04:10:12.354Z,1.70
2019-02-22T04:12:38.694Z,1.60
2019-02-22T04:15:05.288Z,1.50
2019-02-22T04:17:31.757Z,1.50
2019-02-22T04:19:59.114Z,1.80
2019-02-22T04:22:25.510Z,1.70
2019-02-22T04:24:51.795Z,2.00
2019-02-22T04:27:18.127Z,1.80
2019-02-22T04:29:44.503Z,1.60
2019-02-22T04:32:10.787Z,1.80
2019-02-22T04:34:37.138Z,1.70
2019-02-22T04:37:03.488Z,1.50
2019-02-22T04:39:29.826Z,1.70
2019-02-22T04:41:58.277Z,1.60
2019-02-22T04:44:22.588Z,1.60
2019-02-22T04:46:48.920Z,1.63
2019-02-22T04:49:15.291Z,1.80
2019-02-22T04:51:41.620Z,1.53
2019-02-22T04:54:07.971Z,1.70
2019-02-22T04:56:34.336Z,1.97
2019-02-22T04:59:00.690Z,2.07
2019-02-22T05:01:26.981Z,2.70
2019-02-22T05:03:53.371Z,2.30
2019-02-22T05:06:19.776Z,2.10
2019-02-22T05:08:46.126Z,2.37
2019-02-22T05:11:12.456Z,2.30
2019-02-22T05:13:38.806Z,2.20
2019-02-22T05:16:05.143Z,2.67
2019-02-22T05:18:31.473Z,2.50
2019-02-22T05:20:57.802Z,2.30
2019-02-22T05:23:24.134Z,3.00
2019-02-22T05:25:50.532Z,3.10
2019-02-22T05:28:16.950Z,2.97
2019-02-22T05:30:43.304Z,2.40
2019-02-22T05:33:09.657Z,2.13
2019-02-22T05:35:35.982Z,2.40
2019-02-22T05:38:02.376Z,2.57
2019-02-22T05:40:28.764Z,2.40
2019-02-22T05:42:55.094Z,2.50
2019-02-22T05:45:21.424Z,2.97
2019-02-22T05:47:47.767Z,2.50
2019-02-22T05:50:14.095Z,2.30
2019-02-22T05:52:40.433Z,2.40
2019-02-22T05:55:06.831Z,1.87
2019-02-22T05:57:33.182Z,2.20
2019-02-22T06:00:00.807Z,1.90
2019-02-22T06:02:25.939Z,2.43
2019-02-22T06:04:52.271Z,2.07
2019-02-22T06:07:18.805Z,2.10
2019-02-22T06:09:45.212Z,1.77
2019-02-22T06:12:11.553Z,2.40
2019-02-22T06:14:37.945Z,2.20
2019-02-22T06:17:14.251Z,1.90
2019-02-22T06:19:30.705Z,2.07
2019-02-22T06:21:57.185Z,2.40
2019-02-22T06:24:23.579Z,2.30
2019-02-22T06:26:50.048Z,2.40
2019-02-22T06:29:16.432Z,1.90
2019-02-22T06:31:42.847Z,2.47
2019-02-22T06:34:09.190Z,1.97
2019-02-22T06:36:35.577Z,1.83
2019-02-22T06:39:01.974Z,2.17
2019-02-22T06:41:28.314Z,2.63
2019-02-22T06:43:54.642Z,2.00
2019-02-22T06:46:21.266Z,2.90
2019-02-22T06:48:47.529Z,1.73
2019-02-22T06:51:13.868Z,1.90
2019-02-22T06:53:40.203Z,1.97
2019-02-22T06:56:06.536Z,2.13
2019-02-22T06:58:32.865Z,1.90
2019-02-22T07:00:59.282Z,2.00
2019-02-22T07:03:25.654Z,2.73
2019-02-22T07:05:52.048Z,2.27
2019-02-22T07:08:18.374Z,1.90
2019-02-22T07:10:44.746Z,1.90
2019-02-22T07:13:11.129Z,1.77
2019-02-22T07:15:37.566Z,1.83
2019-02-22T07:18:03.944Z,1.47
2019-02-22T07:20:30.334Z,1.33
2019-02-22T07:22:56.742Z,1.80
2019-02-22T07:25:23.176Z,1.80
2019-02-22T07:27:49.529Z,1.87
2019-02-22T07:30:15.863Z,1.80
2019-02-22T07:32:42.373Z,1.20
2019-02-22T07:35:09.777Z,1.70
2019-02-22T07:37:35.041Z,1.90
2019-02-22T07:40:01.361Z,2.20
2019-02-22T07:42:27.824Z,1.90
2019-02-22T07:44:54.324Z,1.80
2019-02-22T07:47:20.790Z,1.60
2019-02-22T07:49:47.166Z,1.97
2019-02-22T07:52:13.603Z,1.90
2019-02-22T07:54:39.976Z,1.53
2019-02-22T07:57:06.361Z,1.97
2019-02-22T07:59:32.691Z,2.47
2019-02-22T08:01:59.041Z,2.03
2019-02-22T08:04:25.375Z,1.80
2019-02-22T08:06:54.027Z,1.80
2019-02-22T08:09:20.421Z,2.17
2019-02-22T08:11:47.951Z,2.27
2019-02-22T08:14:13.178Z,1.77
2019-02-22T08:16:39.505Z,2.00
2019-02-22T08:19:05.888Z,1.70
2019-02-22T08:21:32.264Z,3.07
2019-02-22T08:23:58.599Z,1.70
2019-02-22T08:26:24.979Z,1.83
2019-02-22T08:28:51.359Z,2.00
2019-02-22T08:31:17.690Z,1.70
2019-02-22T08:33:44.028Z,1.80
2019-02-22T08:36:10.431Z,1.80
2019-02-22T08:38:36.716Z,2.00
2019-02-22T08:41:03.116Z,2.20
2019-02-22T08:43:31.885Z,1.97
2019-02-22T08:45:55.817Z,1.90
2019-02-22T08:48:22.148Z,1.80
2019-02-22T08:50:48.533Z,2.03
2019-02-22T08:53:14.871Z,1.90
2019-02-22T08:55:41.203Z,1.80
2019-02-22T08:58:09.767Z,2.00
2019-02-22T09:00:36.108Z,1.70
2019-02-22T09:03:02.479Z,2.17
2019-02-22T09:05:29.877Z,2.27
2019-02-22T09:07:56.276Z,1.90
2019-02-22T09:10:22.799Z,1.80
2019-02-22T09:12:49.587Z,2.00
2019-02-22T09:15:15.944Z,2.13
2019-02-22T09:17:42.265Z,2.10
2019-02-22T09:20:08.609Z,2.00
2019-02-22T09:22:36.152Z,2.63
2019-02-22T09:25:02.613Z,2.20
2019-02-22T09:27:28.852Z,2.13
2019-02-22T09:29:58.817Z,2.37
2019-02-22T09:32:21.582Z,2.00
2019-02-22T09:34:48.125Z,2.20
2019-02-22T09:37:14.262Z,2.63
2019-02-22T09:39:40.607Z,2.73
2019-02-22T09:42:06.937Z,2.40
2019-02-22T09:44:33.293Z,2.17
2019-02-22T09:46:59.724Z,2.40
2019-02-22T09:49:26.055Z,2.83
2019-02-22T09:51:52.390Z,2.43
2019-02-22T09:54:18.718Z,2.30
2019-02-22T09:56:45.080Z,2.50
2019-02-22T09:59:11.414Z,1.90
2019-02-22T10:01:37.775Z,4.50
2019-02-22T10:04:04.100Z,2.57
2019-02-22T10:06:30.438Z,1.70
2019-02-22T10:08:56.824Z,2.17
2019-02-22T10:11:23.169Z,1.93
2019-02-22T10:13:49.616Z,2.33
2019-02-22T10:16:17.591Z,1.97
2019-02-22T10:18:43.971Z,2.10
2019-02-22T10:21:10.398Z,2.00
2019-02-22T10:23:36.764Z,2.10
2019-02-22T10:26:03.114Z,1.80
2019-02-22T10:28:29.453Z,1.67
2019-02-22T10:30:55.837Z,2.50
2019-02-22T10:33:22.188Z,1.93
2019-02-22T10:35:48.621Z,2.80
2019-02-22T10:38:14.957Z,2.30
2019-02-22T10:40:41.327Z,2.77
2019-02-22T10:43:07.648Z,2.00
2019-02-22T10:45:34.001Z,2.57
2019-02-22T10:48:01.414Z,2.23
2019-02-22T10:50:27.755Z,1.73
2019-02-22T10:53:01.687Z,1.97
2019-02-22T10:55:20.482Z,2.37
2019-02-22T10:57:46.864Z,1.90
2019-02-22T11:00:13.248Z,1.60
2019-02-22T11:02:39.708Z,1.60
2019-02-22T11:05:06.089Z,2.23
2019-02-22T11:07:32.441Z,2.10
2019-02-22T11:09:58.906Z,1.97
2019-02-22T11:12:25.243Z,1.60
2019-02-22T11:14:51.664Z,1.27
2019-02-22T11:17:17.998Z,1.50
2019-02-22T11:19:44.452Z,3.40
2019-02-22T11:22:10.828Z,1.70
2019-02-22T11:24:37.140Z,1.40
2019-02-22T11:27:03.498Z,1.30
2019-02-22T11:29:29.909Z,1.80
2019-02-22T11:31:56.251Z,1.87
2019-02-22T11:34:22.740Z,1.70
2019-02-22T11:36:49.081Z,2.03
2019-02-22T11:39:15.908Z,1.50
2019-02-22T11:41:42.251Z,1.60
2019-02-22T11:44:08.746Z,1.40
2019-02-22T11:46:35.128Z,1.77
2019-02-22T11:49:01.539Z,1.90
2019-02-22T11:51:27.925Z,1.40
2019-02-22T11:53:54.247Z,1.63
2019-02-22T11:56:20.642Z,1.50
2019-02-22T11:58:47.090Z,2.17
2019-02-22T12:01:13.386Z,1.83
2019-02-22T12:03:40.767Z,2.77
2019-02-22T12:06:07.201Z,2.20
2019-02-22T12:08:35.978Z,1.57
2019-02-22T12:11:02.340Z,1.70
2019-02-22T12:13:31.785Z,1.50
2019-02-22T12:15:55.599Z,1.40
2019-02-22T12:18:22.053Z,1.60
2019-02-22T12:20:48.413Z,1.50
2019-02-22T12:23:14.865Z,1.23
2019-02-22T12:25:41.285Z,1.57
2019-02-22T12:28:07.706Z,1.90
2019-02-22T12:30:34.011Z,1.50
2019-02-22T12:33:00.350Z,1.37
2019-02-22T12:35:26.697Z,1.87
2019-02-22T12:37:53.559Z,1.40
2019-02-22T12:40:20.980Z,2.00
2019-02-22T12:42:47.350Z,1.37
2019-02-22T12:45:13.849Z,1.20
2019-02-22T12:47:41.295Z,1.23
2019-02-22T12:50:07.698Z,1.37
2019-02-22T12:52:35.164Z,1.27
2019-02-22T12:55:01.683Z,1.83
2019-02-22T12:57:28.084Z,1.50
2019-02-22T12:59:54.560Z,1.23
2019-02-22T13:02:20.977Z,1.60
2019-02-22T13:04:47.326Z,1.10
2019-02-22T13:07:13.757Z,1.70
2019-02-22T13:09:40.042Z,1.73
2019-02-22T13:12:13.613Z,1.40
2019-02-22T13:14:33.154Z,1.13
2019-02-22T13:16:59.541Z,1.40
2019-02-22T13:19:26.015Z,1.20
2019-02-22T13:21:52.375Z,1.50
2019-02-22T13:24:18.785Z,1.40
2019-02-22T13:26:45.169Z,1.20
2019-02-22T13:29:11.591Z,1.23
2019-02-22T13:31:37.910Z,1.30
2019-02-22T13:34:04.275Z,1.20
2019-02-22T13:36:30.755Z,1.33
2019-02-22T13:38:57.155Z,1.40
2019-02-22T13:41:23.584Z,1.20
2019-02-22T13:43:49.996Z,1.33
2019-02-22T13:46:16.441Z,1.10
2019-02-22T13:48:42.842Z,1.27
2019-02-22T13:51:11.379Z,1.30
2019-02-22T13:53:38.112Z,1.20
2019-02-22T13:56:04.472Z,1.10
2019-02-22T13:58:30.860Z,1.30
2019-02-22T14:00:57.212Z,1.47
2019-02-22T14:03:23.687Z,1.30
2019-02-22T14:05:49.991Z,1.20
2019-02-22T14:08:16.395Z,1.20
2019-02-22T14:10:42.774Z,1.20
2019-02-22T14:13:09.131Z,1.00
2019-02-22T14:15:38.316Z,1.10
2019-02-22T14:18:01.945Z,1.10
2019-02-22T14:20:28.352Z,1.60
2019-02-22T14:22:54.709Z,1.37
2019-02-22T14:25:21.051Z,1.33
2019-02-22T14:27:47.461Z,1.23
2019-02-22T14:30:13.893Z,1.80
2019-02-22T14:32:40.253Z,1.20
2019-02-22T14:35:06.633Z,1.10
2019-02-22T14:37:33.043Z,1.10
2019-02-22T14:40:03.472Z,1.60
2019-02-22T14:42:25.794Z,1.47
2019-02-22T14:44:52.119Z,1.50
2019-02-22T14:47:18.619Z,1.43
2019-02-22T14:49:44.971Z,1.73
2019-02-22T14:52:12.767Z,1.47
2019-02-22T14:54:37.630Z,1.53
2019-02-22T14:57:04.049Z,1.47
2019-02-22T14:59:30.563Z,2.13
2019-02-22T15:01:56.996Z,1.60
2019-02-22T15:04:23.343Z,1.73
2019-02-22T15:06:49.675Z,1.93
2019-02-22T15:09:16.211Z,1.50
2019-02-22T15:11:42.575Z,1.60
2019-02-22T15:14:08.950Z,1.50
2019-02-22T15:16:37.985Z,1.40
2019-02-22T15:19:01.786Z,1.60
2019-02-22T15:21:28.100Z,1.43
2019-02-22T15:23:54.444Z,1.70
2019-02-22T15:26:20.809Z,1.77
2019-02-22T15:28:47.163Z,1.50
2019-02-22T15:31:13.509Z,1.53
2019-02-22T15:33:39.865Z,1.40
2019-02-22T15:36:06.188Z,1.30
2019-02-22T15:38:34.584Z,1.73
2019-02-22T15:40:59.082Z,1.67
2019-02-22T15:43:25.383Z,1.20
2019-02-22T15:45:51.745Z,1.50
2019-02-22T15:48:18.178Z,1.60
2019-02-22T15:50:44.505Z,1.43
2019-02-22T15:53:10.828Z,1.60
2019-02-22T15:55:37.182Z,1.80
2019-02-22T15:58:03.518Z,1.53
2019-02-22T16:00:29.887Z,1.60
2019-02-22T16:02:56.233Z,1.67
2019-02-22T16:05:22.612Z,1.23
2019-02-22T16:07:48.960Z,1.40
2019-02-22T16:10:15.292Z,1.40
2019-02-22T16:12:41.809Z,1.30
2019-02-22T16:15:08.165Z,1.30
2019-02-22T16:17:34.574Z,1.20
2019-02-22T16:20:00.951Z,1.30
2019-02-22T16:22:27.328Z,1.27
2019-02-22T16:24:53.669Z,1.47
2019-02-22T16:27:20.034Z,1.00
2019-02-22T16:29:46.384Z,1.30
2019-02-22T16:32:12.772Z,1.10
2019-02-22T16:34:43.514Z,1.10
2019-02-22T16:37:05.569Z,1.03
2019-02-22T16:39:31.924Z,1.17
2019-02-22T16:41:58.393Z,0.90
2019-02-22T16:44:24.759Z,1.23
2019-02-22T16:46:51.148Z,1.23
2019-02-22T16:49:17.544Z,1.10
2019-02-22T16:51:44.018Z,1.00
2019-02-22T16:54:10.362Z,1.20
2019-02-22T16:56:36.759Z,1.40
2019-02-22T16:59:03.163Z,1.00
2019-02-22T17:01:29.685Z,1.10
2019-02-22T17:03:56.196Z,1.40
2019-02-22T17:06:22.623Z,1.00
2019-02-22T17:08:48.962Z,1.00
2019-02-22T17:11:15.382Z,1.17
2019-02-22T17:13:41.714Z,1.33
2019-02-22T17:16:08.091Z,1.00
2019-02-22T17:18:34.531Z,0.83
2019-02-22T17:21:00.883Z,1.20
2019-02-22T17:23:27.211Z,1.10
2019-02-22T17:25:53.570Z,1.00
2019-02-22T17:28:19.900Z,1.07
2019-02-22T17:30:46.336Z,1.00
2019-02-22T17:33:12.715Z,0.90
2019-02-22T17:35:39.028Z,0.90
2019-02-22T17:38:05.313Z,0.80
2019-02-22T17:40:31.661Z,1.00
2019-02-22T17:42:58.101Z,0.90
2019-02-22T17:45:24.458Z,0.90
2019-02-22T17:47:50.801Z,0.90
2019-02-22T17:50:17.179Z,1.00
2019-02-22T17:52:43.643Z,1.30
2019-02-22T17:55:10.061Z,0.90
2019-02-22T17:57:36.416Z,0.70
2019-02-22T18:00:02.839Z,0.90
2019-02-22T18:02:29.152Z,1.00
2019-02-22T18:04:55.451Z,1.00
2019-02-22T18:07:21.909Z,1.07
2019-02-22T18:09:48.251Z,0.87
2019-02-22T18:12:14.659Z,1.10
2019-02-22T18:14:40.944Z,0.80
2019-02-22T18:17:08.663Z,0.90
2019-02-22T18:19:33.607Z,1.00
2019-02-22T18:22:00.017Z,0.90
2019-02-22T18:24:26.417Z,0.87
2019-02-22T18:26:52.759Z,1.00
2019-02-22T18:29:19.106Z,1.10
2019-02-22T18:31:45.456Z,1.00
2019-02-22T18:34:11.786Z,1.13
2019-02-22T18:36:38.114Z,1.00
2019-02-22T18:39:04.488Z,1.00
2019-02-22T18:41:30.836Z,1.00
2019-02-22T18:43:57.186Z,1.03
2019-02-22T18:46:23.557Z,1.00
2019-02-22T18:48:49.908Z,1.10
2019-02-22T18:51:16.252Z,1.00
2019-02-22T18:53:42.586Z,1.00
2019-02-22T18:56:08.936Z,1.23
2019-02-22T18:58:35.267Z,1.00
2019-02-22T19:01:01.596Z,0.90
2019-02-22T19:03:28.216Z,0.90
2019-02-22T19:05:54.605Z,1.10
2019-02-22T19:08:31.804Z,1.00
2019-02-22T19:10:47.262Z,1.20
2019-02-22T19:13:13.591Z,1.30
2019-02-22T19:15:39.930Z,1.13
2019-02-22T19:18:06.301Z,1.10
2019-02-22T19:20:32.605Z,1.13
2019-02-22T19:22:59.002Z,1.00
2019-02-22T19:25:25.290Z,1.07
2019-02-22T19:27:51.621Z,1.17
2019-02-22T19:30:17.957Z,1.00
2019-02-22T19:32:44.305Z,1.00
2019-02-22T19:35:10.635Z,1.10
2019-02-22T19:37:37.047Z,1.10
2019-02-22T19:40:03.335Z,1.00
2019-02-22T19:42:29.518Z,1.20
2019-02-22T19:44:55.850Z,1.20
2019-02-22T19:47:22.166Z,1.10
2019-02-22T19:49:48.508Z,1.13
2019-02-22T19:52:14.848Z,1.10
2019-02-22T19:54:41.171Z,1.20
2019-02-22T19:57:07.494Z,1.30
2019-02-22T19:59:33.844Z,1.20
2019-02-22T20:02:00.216Z,1.40
2019-02-22T20:04:26.706Z,1.10
2019-02-22T20:06:53.061Z,1.10
2019-02-22T20:09:19.555Z,1.00
2019-02-22T20:11:48.073Z,1.10
2019-02-22T20:14:12.234Z,1.30
2019-02-22T20:16:38.561Z,1.20
2019-02-22T20:19:04.923Z,1.13
2019-02-22T20:21:31.270Z,1.37
2019-02-22T20:23:57.609Z,1.13
2019-02-22T20:26:23.930Z,1.20
2019-02-22T20:28:50.261Z,1.00
2019-02-22T20:31:20.315Z,1.00
2019-02-22T20:33:42.984Z,1.10
2019-02-22T20:36:09.325Z,1.10
2019-02-22T20:38:35.649Z,1.00
2019-02-22T20:41:01.996Z,1.00
2019-02-22T20:43:28.329Z,1.20
2019-02-22T20:45:54.855Z,1.30
2019-02-22T20:48:21.255Z,1.20
2019-02-22T20:50:47.633Z,1.00
2019-02-22T20:53:14.001Z,1.27
2019-02-22T20:55:40.463Z,0.90
2019-02-22T20:58:06.835Z,1.10
2019-02-22T21:00:33.163Z,1.20
2019-02-22T21:02:59.539Z,1.10
2019-02-22T21:05:25.890Z,1.00
2019-02-22T21:07:52.304Z,1.20
2019-02-22T21:10:18.660Z,1.00
2019-02-22T21:12:45.021Z,1.00
2019-02-22T21:15:11.346Z,1.20
2019-02-22T21:17:37.705Z,1.10
2019-02-22T21:20:04.030Z,1.33
2019-02-22T21:22:30.519Z,1.10
2019-02-22T21:24:56.896Z,0.90
2019-02-22T21:27:23.461Z,1.20
2019-02-22T21:29:49.791Z,1.20
2019-02-22T21:32:16.141Z,1.13
2019-02-22T21:34:42.545Z,1.23
2019-02-22T21:37:09.109Z,1.00
2019-02-22T21:39:35.430Z,1.00
2019-02-22T21:42:01.771Z,1.30
2019-02-22T21:44:28.180Z,1.20
2019-02-22T21:46:54.529Z,1.20
2019-02-22T21:49:20.899Z,1.10
2019-02-22T21:51:47.257Z,1.10
2019-02-22T21:54:13.640Z,1.10
2019-02-22T21:56:40.063Z,1.27
2019-02-22T21:59:06.357Z,1.17
2019-02-22T22:01:32.706Z,1.00
2019-02-22T22:03:59.055Z,1.20
2019-02-22T22:06:25.415Z,1.10
2019-02-22T22:08:51.773Z,1.27
2019-02-22T22:11:18.109Z,1.00
2019-02-22T22:13:44.456Z,1.17
2019-02-22T22:16:10.847Z,1.00
2019-02-22T22:18:39.047Z,1.20
2019-02-22T22:21:03.580Z,1.10
2019-02-22T22:23:29.913Z,1.10
2019-02-22T22:25:56.270Z,1.20
2019-02-22T22:28:22.629Z,1.13
2019-02-22T22:30:48.974Z,1.00
2019-02-22T22:33:15.322Z,1.20
2019-02-22T22:35:41.694Z,1.07
2019-02-22T22:38:08.112Z,1.10
2019-02-22T22:40:34.430Z,1.10
2019-02-22T22:43:00.806Z,1.20
2019-02-22T22:45:27.191Z,1.13
2019-02-22T22:47:53.520Z,1.10
2019-02-22T22:50:19.860Z,1.07
2019-02-22T22:52:46.230Z,1.03
2019-02-22T22:55:12.584Z,1.20
2019-02-22T22:57:39.025Z,1.30
2019-02-22T23:00:05.420Z,1.10
2019-02-22T23:02:31.765Z,1.10
2019-02-22T23:04:58.105Z,1.10
2019-02-22T23:07:24.547Z,1.10
2019-02-22T23:09:50.912Z,1.20
2019-02-22T23:12:17.254Z,1.10
2019-02-22T23:14:43.620Z,1.40
2019-02-22T23:17:09.960Z,1.30
2019-02-22T23:19:36.313Z,1.00
2019-02-22T23:22:02.658Z,1.10
2019-02-22T23:24:29.026Z,1.20
2019-02-22T23:26:55.398Z,1.07
2019-02-22T23:29:21.747Z,1.10
2019-02-22T23:31:48.118Z,1.10
2019-02-22T23:34:14.470Z,0.90
2019-02-22T23:36:40.812Z,1.20
2019-02-22T23:39:07.372Z,1.10
2019-02-22T23:41:33.733Z,1.10
2019-02-22T23:44:00.095Z,1.30
2019-02-22T23:46:26.495Z,1.00
2019-02-22T23:48:52.828Z,1.10
2019-02-22T23:51:19.179Z,1.00
2019-02-22T23:53:45.519Z,1.00
2019-02-22T23:56:11.934Z,1.20
2019-02-22T23:58:38.293Z,1.00
